Time;durP1;ratioP1;P1;durP2;ratioP2;P2;SDS_P1;SDS_P2;PMS_P1;PMS_P2;Temp;Humidity;BMP_temperature;BMP_pressure;BME280_temperature;BME280_humidity;BME280_pressure;Samples;Min_cycle;Max_cycle;Signal;HPM_P1;HPM_P2
2021/11/12 00:17:33;;;;;;;50.33;24.67;;;;;;;3.03;100.00;99840.97;4254079;82;28496;-81
2021/11/12 00:23:38;;;;;;;53.20;25.62;;;;;;;3.03;100.00;99843.63;4205268;83;28525;-81
2021/11/12 00:29:50;;;;;;;58.23;27.58;;;;;;;3.01;100.00;99838.98;4232451;82;28515;-82
2021/11/12 00:35:54;;;;;;;58.87;26.95;;;;;;;2.96;100.00;99839.94;4244664;82;28581;-80
2021/11/12 00:42:08;;;;;;;55.28;24.80;;;;;;;2.92;100.00;99842.12;4269501;82;28453;-80
2021/11/12 00:48:12;;;;;;;58.42;25.88;;;;;;;2.84;100.00;99842.08;4246511;82;28528;-80
2021/11/12 00:54:06;;;;;;;57.75;26.45;;;;;;;2.83;100.00;99848.87;4242089;82;28540;-78
2021/11/12 01:00:10;;;;;;;53.58;24.60;;;;;;;2.88;100.00;99847.91;4254803;82;28456;-76
2021/11/12 01:06:11;;;;;;;55.12;26.60;;;;;;;2.78;100.00;99845.36;4245112;82;28516;-79
2021/11/12 01:12:13;;;;;;;58.98;27.65;;;;;;;2.87;100.00;99847.58;4252128;82;28485;-78
2021/11/12 01:18:14;;;;;;;62.95;29.57;;;;;;;2.91;100.00;99845.73;4239671;82;28444;-80
2021/11/12 01:24:16;;;;;;;66.97;29.72;;;;;;;2.89;100.00;99837.62;4330853;81;28513;-80
2021/11/12 01:30:19;;;;;;;60.98;28.87;;;;;;;2.93;100.00;99845.59;4241846;82;28588;-79
2021/11/12 01:36:32;;;;;;;55.95;27.42;;;;;;;3.00;100.00;99835.98;4236277;82;28511;-79
2021/11/12 01:42:59;;;;;;;65.05;30.30;;;;;;;3.13;100.00;99847.48;4225123;82;28533;-80
2021/11/12 01:49:12;;;;;;;65.08;30.00;;;;;;;3.21;100.00;99847.48;4249571;82;28523;-79
2021/11/12 01:55:09;;;;;;;;;;;;;;;3.29;100.00;99849.34;4244304;82;28461;-78
2021/11/12 02:01:10;;;;;;;73.60;34.90;;;;;;;3.23;100.00;99851.31;4251365;82;20234;-79
2021/11/12 02:07:12;;;;;;;67.62;31.48;;;;;;;3.21;100.00;99846.66;4238006;82;28526;-79
2021/11/12 02:13:18;;;;;;;63.95;31.12;;;;;;;3.26;100.00;99844.84;4256457;82;28477;-79
2021/11/12 02:19:19;;;;;;;61.88;30.25;;;;;;;3.28;100.00;99850.34;4318360;81;28507;-78
2021/11/12 02:25:27;;;;;;;65.42;31.25;;;;;;;3.32;100.00;99845.02;4336673;81;28505;-79
2021/11/12 02:31:27;;;;;;;71.30;34.18;;;;;;;3.48;100.00;99844.69;4312942;81;28478;-78
2021/11/12 02:37:32;;;;;;;73.72;34.78;;;;;;;3.48;100.00;99827.41;4242379;82;28543;-78
2021/11/12 02:43:36;;;;;;;67.23;30.60;;;;;;;3.43;100.00;99828.42;4322006;81;28598;-77
2021/11/12 02:49:38;;;;;;;62.13;29.12;;;;;;;3.46;100.00;99826.27;4330478;81;28481;-78
2021/11/12 02:55:42;;;;;;;61.60;28.60;;;;;;;3.60;100.00;99831.91;4319567;81;28494;-81
2021/11/12 03:01:46;;;;;;;68.85;31.68;;;;;;;3.66;100.00;99827.75;4340761;81;28470;-84
2021/11/12 03:07:48;;;;;;;71.20;31.82;;;;;;;3.79;100.00;99832.58;4233291;82;28592;-78
2021/11/12 03:13:50;;;;;;;70.45;32.35;;;;;;;3.82;100.00;99828.25;4237063;82;28484;-79
2021/11/12 03:19:52;;;;;;;62.33;28.35;;;;;;;3.80;100.00;99828.44;4251258;82;28580;-80
2021/11/12 04:03:38;;;;;;;62.05;28.10;;;;;;;4.05;100.00;99836.38;4344692;80;28539;-78
2021/11/12 04:41:27;;;;;;;69.80;28.95;;;;;;;4.20;100.00;99836.52;4389187;81;28501;-79
2021/11/12 05:12:44;;;;;;;73.17;30.45;;;;;;;4.25;100.00;99858.64;4264566;83;28473;-80
2021/11/12 05:44:06;;;;;;;72.42;30.27;;;;;;;4.35;100.00;99871.27;4374830;81;28547;-80
2021/11/12 05:50:16;;;;;;;71.92;31.68;;;;;;;4.48;100.00;99870.74;4356929;80;28538;-80
2021/11/12 05:56:14;;;;;;;71.00;28.95;;;;;;;4.37;100.00;99877.25;4398588;81;28475;-78
2021/11/12 06:02:16;;;;;;;64.80;28.55;;;;;;;4.43;100.00;99870.41;4354191;81;28465;-81
2021/11/12 06:08:18;;;;;;;65.40;28.45;;;;;;;4.38;100.00;99881.56;4378590;81;28502;-80
2021/11/12 06:14:22;;;;;;;65.20;29.00;;;;;;;4.43;100.00;99877.06;4360686;81;28474;-79
2021/11/12 06:20:23;;;;;;;68.37;30.60;;;;;;;4.53;100.00;99886.18;4397594;81;28505;-78
2021/11/12 06:26:25;;;;;;;73.80;31.35;;;;;;;4.62;100.00;99880.35;4377712;81;28529;-81
2021/11/12 06:32:26;;;;;;;71.57;31.62;;;;;;;4.64;100.00;99877.85;4382917;81;28464;-81
2021/11/12 06:38:30;;;;;;;65.17;28.32;;;;;;;4.69;100.00;99886.66;4385226;80;28463;-79
2021/11/12 06:50:43;;;;;;;67.17;28.95;;;;;;;4.76;100.00;99903.60;4236127;82;28527;-77
2021/11/12 06:56:48;;;;;;;68.42;30.75;;;;;;;4.86;100.00;99900.23;4277598;83;28515;-79
2021/11/12 07:02:51;;;;;;;67.05;28.62;;;;;;;4.93;100.00;99890.23;4247045;83;28510;-78
2021/11/12 07:08:54;;;;;;;63.17;27.82;;;;;;;5.02;100.00;99891.86;4280490;83;28475;-79
2021/11/12 07:14:55;;;;;;;58.28;27.07;;;;;;;5.13;100.00;99884.80;4314823;82;28467;-79
2021/11/12 07:20:58;;;;;;;58.02;25.27;;;;;;;5.19;100.00;99889.09;4320441;82;28541;-79
2021/11/12 07:27:00;;;;;;;66.42;28.83;;;;;;;5.37;100.00;99891.00;4298453;82;28553;-82
2021/11/12 07:33:01;;;;;;;65.25;29.63;;;;;;;5.42;100.00;99889.14;4316160;82;28521;-80
2021/11/12 07:39:09;;;;;;;64.82;28.98;;;;;;;5.53;100.00;99888.73;4302204;82;28544;-82
2021/11/12 07:45:11;;;;;;;58.50;27.80;;;;;;;5.67;100.00;99891.14;4326134;81;28544;-83
2021/11/12 07:51:13;;;;;;;56.10;26.82;;;;;;;5.68;100.00;99890.12;4302787;81;28610;-82
2021/11/12 07:57:15;;;;;;;61.70;29.42;;;;;;;5.88;100.00;99890.98;4299760;82;28471;-81
2021/11/12 08:03:18;;;;;;;65.97;30.57;;;;;;;5.91;100.00;99885.80;4293993;82;28528;-85
2021/11/12 08:09:21;;;;;;;67.67;30.70;;;;;;;6.03;100.00;99881.72;4284263;82;28513;-88
2021/11/12 08:34:16;;;;;;;60.25;28.10;;;;;;;6.50;100.00;99866.89;4216410;83;28474;-89
2021/11/12 08:40:20;;;;;;;57.62;27.27;;;;;;;6.61;100.00;99865.61;4202309;84;28551;-88
2021/11/12 08:46:26;;;;;;;52.15;25.40;;;;;;;6.73;100.00;99868.14;4201518;83;28543;-89
2021/11/12 08:52:25;;;;;;;;;;;;;;;6.78;100.00;99871.09;4230263;84;28495;-85
2021/11/12 08:58:26;;;;;;;52.48;25.02;;;;;;;6.92;100.00;99859.23;4201807;84;20176;-87
2021/11/12 09:04:27;;;;;;;54.77;25.72;;;;;;;7.03;100.00;99854.73;4219476;83;28487;-89
2021/11/12 09:10:30;;;;;;;53.15;25.68;;;;;;;7.08;100.00;99848.83;4197172;84;28446;-86
2021/11/12 09:16:34;;;;;;;50.78;25.43;;;;;;;7.21;100.00;99850.30;4188112;84;28469;-84
2021/11/12 09:22:35;;;;;;;47.38;23.57;;;;;;;7.33;100.00;99839.10;4183614;84;28532;-88
2021/11/12 09:28:36;;;;;;;50.48;24.02;;;;;;;7.39;100.00;99827.66;4197882;83;28458;-86
2021/11/12 09:34:38;;;;;;;51.65;23.02;;;;;;;7.50;100.00;99834.36;4229302;83;28481;-86
2021/11/12 09:40:39;;;;;;;44.50;22.17;;;;;;;7.50;100.00;99829.00;4242497;83;28542;-87
2021/11/12 09:46:41;;;;;;;43.08;21.25;;;;;;;7.49;100.00;99832.17;4233042;83;28506;-87
2021/11/12 09:52:45;;;;;;;41.55;20.00;;;;;;;7.42;100.00;99831.80;4225699;84;28493;-90
2021/11/12 09:58:49;;;;;;;41.65;19.73;;;;;;;7.29;100.00;99823.97;4245917;83;28475;-85
2021/11/12 10:04:51;;;;;;;39.98;20.00;;;;;;;7.45;100.00;99816.70;4260124;83;28483;-88
2021/11/12 10:11:07;;;;;;;42.60;20.72;;;;;;;7.49;100.00;99813.45;4325563;81;28893;-88
2021/11/12 10:17:10;;;;;;;44.88;22.45;;;;;;;7.57;100.00;99803.11;4345634;81;28461;-87
2021/11/12 10:23:15;;;;;;;41.60;21.55;;;;;;;7.60;100.00;99796.55;4270298;82;28568;-81
2021/11/12 10:29:21;;;;;;;42.78;21.40;;;;;;;7.66;100.00;99785.90;4343634;81;28588;-88
2021/11/12 10:35:27;;;;;;;39.25;20.88;;;;;;;7.73;100.00;99781.13;4322150;81;28538;-87
2021/11/12 10:41:31;;;;;;;40.63;21.27;;;;;;;7.86;100.00;99775.86;4311148;81;28485;-88
2021/11/12 10:47:34;;;;;;;40.25;21.07;;;;;;;7.87;100.00;99768.67;4295958;81;28506;-88
2021/11/12 10:53:51;;;;;;;41.20;20.23;;;;;;;7.83;100.00;99766.05;4286286;83;28474;-88
2021/11/12 11:00:10;;;;;;;36.13;19.45;;;;;;;7.84;100.00;99755.66;4354743;81;28464;-78
2021/11/12 11:06:19;;;;;;;40.78;20.75;;;;;;;7.88;100.00;99743.55;4304647;81;28511;-79
2021/11/12 11:12:43;;;;;;;40.70;20.55;;;;;;;8.00;100.00;99739.79;4245175;82;28470;-87
2021/11/12 11:18:54;;;;;;;40.92;21.42;;;;;;;8.08;100.00;99737.80;4229946;83;28453;-87
2021/11/12 11:24:59;;;;;;;44.35;22.42;;;;;;;8.02;100.00;99735.06;4284700;82;28514;-79
2021/11/12 11:31:09;;;;;;;40.13;21.03;;;;;;;8.02;100.00;99726.53;4274592;81;28550;-78
2021/11/12 11:37:10;;;;;;;37.13;19.52;;;;;;;8.06;100.00;99725.09;4279193;82;28542;-85
2021/11/12 11:43:14;;;;;;;40.60;20.90;;;;;;;8.17;100.00;99721.55;4281106;82;28496;-86
2021/11/12 11:49:22;;;;;;;40.03;22.02;;;;;;;8.15;100.00;99713.73;4289866;83;28538;-78
2021/11/12 11:55:36;;;;;;;45.73;22.20;;;;;;;8.15;100.00;99707.53;4280641;82;28507;-76
2021/11/12 12:01:46;;;;;;;42.08;22.00;;;;;;;8.25;100.00;99701.82;4346653;81;28578;-77
2021/11/12 12:07:52;;;;;;;39.65;20.17;;;;;;;8.27;100.00;99705.13;4332220;82;28572;-76
2021/11/12 12:14:27;;;;;;;36.13;19.55;;;;;;;8.25;100.00;99694.59;4321689;82;28650;-77
2021/11/12 12:20:53;;;;;;;41.58;21.37;;;;;;;8.18;100.00;99691.08;4318900;82;28453;-78
2021/11/12 12:34:03;;;;;;;46.40;22.65;;;;;;;8.02;100.00;99682.34;4321500;81;28488;-77
2021/11/12 13:24:39;;;;;;;41.65;21.70;;;;;;;7.84;100.00;99660.61;4268176;81;28469;-74
2021/11/12 13:30:54;;;;;;;46.80;24.15;;;;;;;7.86;100.00;99659.89;4305875;81;28521;-76
2021/11/12 13:36:56;;;;;;;50.67;25.97;;;;;;;7.81;100.00;99662.67;4201606;83;28463;-76
2021/11/12 13:43:00;;;;;;;52.10;25.17;;;;;;;7.51;100.00;99654.87;4264137;82;28505;-79
2021/11/12 13:49:02;;;;;;;54.20;26.82;;;;;;;7.66;100.00;99647.25;4258917;83;28457;-81
2021/11/12 13:55:16;;;;;;;48.73;25.17;;;;;;;7.38;100.00;99643.55;4254313;82;28582;-81
2021/11/12 14:01:23;;;;;;;50.15;24.37;;;;;;;7.30;100.00;99642.88;4267711;82;28463;-79
2021/11/12 14:07:26;;;;;;;52.58;26.20;;;;;;;7.24;100.00;99631.12;4265130;82;28534;-80
2021/11/12 14:13:43;;;;;;;52.45;26.55;;;;;;;7.22;100.00;99632.64;4264987;82;28560;-80
2021/11/12 14:32:46;;;;;;;57.65;28.38;;;;;;;7.03;100.00;99638.66;4176118;84;28459;-78
2021/11/12 14:38:55;;;;;;;57.78;28.85;;;;;;;6.82;100.00;99629.63;4240430;82;28491;-77
2021/11/12 14:45:09;;;;;;;67.90;31.47;;;;;;;6.81;100.00;99620.80;4265312;82;36866;-77
2021/11/12 14:51:15;;;;;;;70.60;30.92;;;;;;;6.69;100.00;99626.35;4329966;81;28487;-79
2021/11/12 15:03:25;;;;;;;59.40;28.10;;;;;;;6.91;100.00;99625.00;4250600;82;28483;-77
2021/11/12 15:09:30;;;;;;;48.70;24.90;;;;;;;6.84;100.00;99618.27;4254073;82;28549;-78
2021/11/12 15:15:30;;;;;;;55.98;26.70;;;;;;;6.90;100.00;99621.48;4237335;83;28505;-78
2021/11/12 15:21:36;;;;;;;57.70;27.98;;;;;;;6.86;100.00;99622.06;4213858;83;28533;-79
2021/11/12 15:33:58;;;;;;;57.30;25.80;;;;;;;6.65;100.00;99613.88;4176964;83;28486;-80
2021/11/12 15:40:04;;;;;;;50.63;23.92;;;;;;;6.66;100.00;99610.19;4233326;82;28626;-80
2021/11/12 15:46:14;;;;;;;54.63;25.70;;;;;;;6.58;100.00;99610.30;4219847;82;28520;-80
2021/11/12 15:52:10;;;;;;;57.93;26.45;;;;;;;6.44;100.00;99611.20;4232374;82;28505;-83
2021/11/12 16:10:40;;;;;;;53.02;25.37;;;;;;;6.50;100.00;99611.77;4234282;83;28466;-82
2021/11/12 16:35:09;;;;;;;62.03;28.67;;;;;;;6.35;100.00;99611.81;4242774;82;28468;-72
2021/11/12 16:41:18;;;;;;;;;;;;;;;6.39;100.00;99603.23;4234851;82;28540;-73
2021/11/12 17:00:23;;;;;;;65.65;30.50;;;;;;;6.33;100.00;99607.17;4318212;81;28488;-77
2021/11/12 17:06:57;;;;;;;67.35;30.70;;;;;;;6.40;100.00;99602.24;4337885;81;28486;-79
2021/11/12 17:18:44;;;;;;;56.88;25.35;;;;;;;5.83;100.00;99603.30;4366894;81;20158;-75
2021/11/12 17:49:41;;;;;;;60.92;27.37;;;;;;;6.07;100.00;99603.20;4319054;81;28455;-80
2021/11/12 18:02:03;;;;;;;63.90;28.27;;;;;;;6.14;100.00;99600.08;4295801;81;28435;-84
2021/11/12 18:21:11;;;;;;;55.63;26.62;;;;;;;5.99;100.00;99569.42;4312854;81;28451;-79
2021/11/12 21:48:21;;;;;;;78.07;30.50;;;;;;;5.74;100.00;99531.03;4275714;82;28507;-81
2021/11/12 21:54:22;;;;;;;82.70;31.65;;;;;;;5.66;100.00;99521.30;4317994;81;28476;-83
2021/11/12 22:00:24;;;;;;;74.32;29.50;;;;;;;5.86;100.00;99520.19;4335682;81;28489;-81
2021/11/12 22:06:25;;;;;;;74.27;29.32;;;;;;;5.80;100.00;99516.11;4311484;81;28439;-81
2021/11/12 22:12:27;;;;;;;68.85;27.10;;;;;;;5.73;100.00;99513.37;4313489;81;28473;-82
2021/11/12 22:18:28;;;;;;;65.22;26.93;;;;;;;5.71;100.00;99508.22;4357339;81;28465;-83
2021/11/12 22:24:30;;;;;;;70.47;29.50;;;;;;;5.87;100.00;99514.36;4312398;81;28465;-80
2021/11/12 22:30:35;;;;;;;77.40;29.42;;;;;;;5.89;100.00;99512.31;4336991;81;28514;-84
2021/11/12 22:36:38;;;;;;;74.53;29.20;;;;;;;5.60;100.00;99494.55;4314817;81;28528;-81
2021/11/12 22:42:41;;;;;;;70.03;28.10;;;;;;;5.68;100.00;99493.92;4303565;80;28532;-81
2021/11/12 22:48:42;;;;;;;72.20;28.17;;;;;;;5.79;100.00;99496.63;4306982;81;28487;-80
2021/11/12 22:54:47;;;;;;;66.45;26.80;;;;;;;5.80;100.00;99494.27;4309339;81;28455;-87
2021/11/12 23:00:59;;;;;;;75.70;29.32;;;;;;;5.80;100.00;99476.93;4339322;81;28479;-86
2021/11/12 23:07:00;;;;;;;76.95;29.37;;;;;;;5.85;100.00;99478.50;4327904;80;28630;-87
2021/11/12 23:13:03;;;;;;;79.90;30.23;;;;;;;5.58;100.00;99465.39;4353682;81;28499;-82
2021/11/12 23:19:05;;;;;;;87.20;28.87;;;;;;;5.70;100.00;99461.21;4320161;81;28529;-81
2021/11/12 23:25:08;;;;;;;79.10;28.10;;;;;;;5.53;100.00;99458.47;4244790;81;28487;-79
2021/11/12 23:31:11;;;;;;;77.00;26.65;;;;;;;5.40;100.00;99445.80;4328723;81;28464;-85
2021/11/12 23:37:13;;;;;;;81.15;29.23;;;;;;;5.54;100.00;99433.45;4264972;81;28492;-79
2021/11/12 23:43:14;;;;;;;82.72;28.85;;;;;;;5.52;100.00;99430.96;4234894;83;28485;-86
2021/11/12 23:49:16;;;;;;;87.33;30.20;;;;;;;5.64;100.00;99413.13;4215897;83;28455;-84
2021/11/12 23:55:20;;;;;;;81.97;28.50;;;;;;;5.66;100.00;99415.09;4226035;83;28439;-81
